logo
Search for airport 
image banner adimage banner adimage banner ad
image banner ad

EYTL - Telsiai

Located in Telsiai, Lithuania

ICAO - EYTL, IATA -

Data provided by Airmate  

General information

Coordinates: N55°59'11" E22°17'16"
Elevation is 410 feet MSL.
Magnetic variation is 7° East
View others Airports in Telšiai County

Operational data

Special qualification required
Current time UTC:
Current local time:
METAR: EYSA 281950Z 09006KT CAVOK 20/11 Q1017 NOSIG
TAF: TAF EYSA 282000Z 2821/2906 VRB05KT 9000 NSC TEMPO 2900/2904 5000 MIFG BR
View NOTAMs / SUP AIP / TFR affecting this airport [VIEW]
Communications frequencies: [VIEW]

Runways:

RWY identifierQFULength (ft)Width (ft)SurfaceLDA (ft)
05R52°1903197GRASS
23L232°1903197GRASS
11119°1509328GRASS
29299°1509328GRASS

Airport contact information

Address: Telsiai Lithuania

Satellite view of EYTL